sensor_id;sensor_type;location;lat;lon;timestamp;P1;durP1;ratioP1;P2;durP2;ratioP2
7432;SDS011;32233;49.500;7.764;2023-08-31T00:00:55;28.77;;;17.57;;
7432;SDS011;32233;49.500;7.764;2023-08-31T00:03:21;24.33;;;15.47;;
7432;SDS011;32233;49.500;7.764;2023-08-31T00:05:48;29.53;;;16.50;;
7432;SDS011;32233;49.500;7.764;2023-08-31T00:08:17;32.00;;;16.77;;
7432;SDS011;32233;49.500;7.764;2023-08-31T00:10:44;22.33;;;15.00;;
7432;SDS011;32233;49.500;7.764;2023-08-31T00:13:11;24.70;;;15.40;;
7432;SDS011;32233;49.500;7.764;2023-08-31T00:15:38;31.70;;;16.77;;
7432;SDS011;32233;49.500;7.764;2023-08-31T00:18:07;37.80;;;18.43;;
7432;SDS011;32233;49.500;7.764;2023-08-31T00:20:34;39.47;;;19.03;;
7432;SDS011;32233;49.500;7.764;2023-08-31T00:23:01;26.10;;;16.63;;
7432;SDS011;32233;49.500;7.764;2023-08-31T00:25:27;48.40;;;21.53;;
7432;SDS011;32233;49.500;7.764;2023-08-31T00:27:55;28.67;;;18.40;;
7432;SDS011;32233;49.500;7.764;2023-08-31T00:30:23;43.67;;;22.00;;
7432;SDS011;32233;49.500;7.764;2023-08-31T00:32:56;42.43;;;21.10;;
7432;SDS011;32233;49.500;7.764;2023-08-31T00:35:27;34.03;;;18.73;;
7432;SDS011;32233;49.500;7.764;2023-08-31T00:37:55;40.97;;;22.03;;
7432;SDS011;32233;49.500;7.764;2023-08-31T00:40:25;41.30;;;21.50;;
7432;SDS011;32233;49.500;7.764;2023-08-31T00:42:51;27.27;;;17.67;;
7432;SDS011;32233;49.500;7.764;2023-08-31T00:45:18;30.03;;;17.57;;
7432;SDS011;32233;49.500;7.764;2023-08-31T00:47:48;28.27;;;16.63;;
7432;SDS011;32233;49.500;7.764;2023-08-31T00:50:16;44.03;;;21.10;;
7432;SDS011;32233;49.500;7.764;2023-08-31T00:52:42;30.87;;;16.80;;
7432;SDS011;32233;49.500;7.764;2023-08-31T00:55:13;26.80;;;16.53;;
7432;SDS011;32233;49.500;7.764;2023-08-31T00:57:40;35.57;;;18.47;;
7432;SDS011;32233;49.500;7.764;2023-08-31T01:00:07;31.63;;;17.83;;
7432;SDS011;32233;49.500;7.764;2023-08-31T01:02:57;24.53;;;16.10;;
7432;SDS011;32233;49.500;7.764;2023-08-31T01:05:33;34.67;;;18.33;;
7432;SDS011;32233;49.500;7.764;2023-08-31T01:15:46;30.77;;;18.10;;
7432;SDS011;32233;49.500;7.764;2023-08-31T01:18:21;29.63;;;17.63;;
7432;SDS011;32233;49.500;7.764;2023-08-31T01:20:58;48.77;;;23.97;;
7432;SDS011;32233;49.500;7.764;2023-08-31T01:23:49;38.03;;;19.47;;
7432;SDS011;32233;49.500;7.764;2023-08-31T01:26:20;41.87;;;21.63;;
7432;SDS011;32233;49.500;7.764;2023-08-31T01:28:49;38.27;;;21.43;;
7432;SDS011;32233;49.500;7.764;2023-08-31T01:31:17;47.27;;;23.77;;
7432;SDS011;32233;49.500;7.764;2023-08-31T01:33:46;40.60;;;21.87;;
7432;SDS011;32233;49.500;7.764;2023-08-31T01:36:17;46.23;;;22.93;;
7432;SDS011;32233;49.500;7.764;2023-08-31T01:38:51;54.70;;;21.70;;
7432;SDS011;32233;49.500;7.764;2023-08-31T01:41:26;55.90;;;24.57;;
7432;SDS011;32233;49.500;7.764;2023-08-31T01:43:55;46.23;;;20.13;;
7432;SDS011;32233;49.500;7.764;2023-08-31T01:46:22;58.77;;;24.57;;
7432;SDS011;32233;49.500;7.764;2023-08-31T01:48:48;28.70;;;16.70;;
7432;SDS011;32233;49.500;7.764;2023-08-31T01:51:16;36.37;;;17.73;;
7432;SDS011;32233;49.500;7.764;2023-08-31T01:53:43;32.20;;;16.70;;
7432;SDS011;32233;49.500;7.764;2023-08-31T01:56:11;25.63;;;14.70;;
7432;SDS011;32233;49.500;7.764;2023-08-31T01:58:37;22.40;;;13.57;;
7432;SDS011;32233;49.500;7.764;2023-08-31T02:01:04;21.50;;;13.30;;
7432;SDS011;32233;49.500;7.764;2023-08-31T02:03:30;25.57;;;12.27;;
7432;SDS011;32233;49.500;7.764;2023-08-31T02:05:57;21.67;;;12.20;;
7432;SDS011;32233;49.500;7.764;2023-08-31T02:08:24;22.13;;;12.90;;
7432;SDS011;32233;49.500;7.764;2023-08-31T02:10:50;22.97;;;13.80;;
7432;SDS011;32233;49.500;7.764;2023-08-31T02:13:21;17.67;;;12.40;;
7432;SDS011;32233;49.500;7.764;2023-08-31T02:15:51;22.77;;;13.87;;
7432;SDS011;32233;49.500;7.764;2023-08-31T02:18:18;23.27;;;13.47;;
7432;SDS011;32233;49.500;7.764;2023-08-31T02:20:45;25.97;;;15.17;;
7432;SDS011;32233;49.500;7.764;2023-08-31T02:23:13;28.60;;;14.77;;
7432;SDS011;32233;49.500;7.764;2023-08-31T02:25:40;31.20;;;14.93;;
7432;SDS011;32233;49.500;7.764;2023-08-31T02:28:06;20.67;;;13.00;;
7432;SDS011;32233;49.500;7.764;2023-08-31T02:30:36;25.13;;;14.30;;
7432;SDS011;32233;49.500;7.764;2023-08-31T02:33:04;21.33;;;13.03;;
7432;SDS011;32233;49.500;7.764;2023-08-31T02:35:31;22.87;;;13.67;;
7432;SDS011;32233;49.500;7.764;2023-08-31T02:37:57;22.97;;;12.73;;
7432;SDS011;32233;49.500;7.764;2023-08-31T02:40:24;17.17;;;11.53;;
7432;SDS011;32233;49.500;7.764;2023-08-31T02:42:51;20.17;;;12.00;;
7432;SDS011;32233;49.500;7.764;2023-08-31T02:45:19;16.10;;;9.70;;
7432;SDS011;32233;49.500;7.764;2023-08-31T02:47:46;15.03;;;9.77;;
7432;SDS011;32233;49.500;7.764;2023-08-31T02:50:16;17.63;;;10.20;;
7432;SDS011;32233;49.500;7.764;2023-08-31T02:52:42;16.20;;;9.57;;
7432;SDS011;32233;49.500;7.764;2023-08-31T02:55:09;19.63;;;10.27;;
7432;SDS011;32233;49.500;7.764;2023-08-31T02:57:36;14.43;;;8.70;;
7432;SDS011;32233;49.500;7.764;2023-08-31T03:00:03;17.27;;;10.07;;
7432;SDS011;32233;49.500;7.764;2023-08-31T03:02:35;15.30;;;9.70;;
7432;SDS011;32233;49.500;7.764;2023-08-31T03:05:03;15.20;;;8.47;;
7432;SDS011;32233;49.500;7.764;2023-08-31T03:07:29;19.57;;;8.73;;
7432;SDS011;32233;49.500;7.764;2023-08-31T03:09:56;16.07;;;8.73;;
7432;SDS011;32233;49.500;7.764;2023-08-31T03:12:23;17.77;;;9.60;;
7432;SDS011;32233;49.500;7.764;2023-08-31T03:14:49;19.80;;;9.80;;
7432;SDS011;32233;49.500;7.764;2023-08-31T03:17:17;17.73;;;9.57;;
7432;SDS011;32233;49.500;7.764;2023-08-31T03:19:43;17.00;;;9.40;;
7432;SDS011;32233;49.500;7.764;2023-08-31T03:22:11;16.57;;;9.40;;
7432;SDS011;32233;49.500;7.764;2023-08-31T03:24:37;14.53;;;9.27;;
7432;SDS011;32233;49.500;7.764;2023-08-31T03:27:04;16.87;;;9.40;;
7432;SDS011;32233;49.500;7.764;2023-08-31T03:29:31;21.67;;;10.23;;
7432;SDS011;32233;49.500;7.764;2023-08-31T03:31:59;19.00;;;9.40;;
7432;SDS011;32233;49.500;7.764;2023-08-31T03:34:30;16.93;;;10.07;;
7432;SDS011;32233;49.500;7.764;2023-08-31T03:36:57;18.30;;;10.27;;
7432;SDS011;32233;49.500;7.764;2023-08-31T03:39:25;22.80;;;10.40;;
7432;SDS011;32233;49.500;7.764;2023-08-31T03:41:52;18.40;;;9.67;;
7432;SDS011;32233;49.500;7.764;2023-08-31T03:44:20;21.07;;;10.03;;
7432;SDS011;32233;49.500;7.764;2023-08-31T03:46:48;23.43;;;10.43;;
7432;SDS011;32233;49.500;7.764;2023-08-31T03:49:15;21.60;;;9.70;;
7432;SDS011;32233;49.500;7.764;2023-08-31T03:51:42;16.57;;;9.37;;
7432;SDS011;32233;49.500;7.764;2023-08-31T03:54:10;21.57;;;10.80;;
7432;SDS011;32233;49.500;7.764;2023-08-31T03:56:39;17.43;;;9.33;;
7432;SDS011;32233;49.500;7.764;2023-08-31T03:59:06;20.20;;;10.07;;
7432;SDS011;32233;49.500;7.764;2023-08-31T04:01:32;14.93;;;9.23;;
7432;SDS011;32233;49.500;7.764;2023-08-31T04:03:59;19.23;;;8.97;;
7432;SDS011;32233;49.500;7.764;2023-08-31T04:06:26;17.30;;;10.03;;
7432;SDS011;32233;49.500;7.764;2023-08-31T04:08:54;21.70;;;9.50;;
7432;SDS011;32233;49.500;7.764;2023-08-31T04:11:21;20.80;;;9.70;;
7432;SDS011;32233;49.500;7.764;2023-08-31T04:13:48;13.40;;;8.83;;
7432;SDS011;32233;49.500;7.764;2023-08-31T04:16:15;17.33;;;8.67;;
7432;SDS011;32233;49.500;7.764;2023-08-31T04:18:41;16.57;;;9.10;;
7432;SDS011;32233;49.500;7.764;2023-08-31T04:21:08;20.73;;;10.20;;
7432;SDS011;32233;49.500;7.764;2023-08-31T04:23:35;19.57;;;9.47;;
7432;SDS011;32233;49.500;7.764;2023-08-31T04:26:09;16.40;;;9.27;;
7432;SDS011;32233;49.500;7.764;2023-08-31T04:28:36;16.30;;;9.47;;
7432;SDS011;32233;49.500;7.764;2023-08-31T04:31:06;17.27;;;9.67;;
7432;SDS011;32233;49.500;7.764;2023-08-31T04:33:37;18.77;;;9.70;;
7432;SDS011;32233;49.500;7.764;2023-08-31T04:36:04;20.90;;;9.77;;
7432;SDS011;32233;49.500;7.764;2023-08-31T04:38:32;19.80;;;11.47;;
7432;SDS011;32233;49.500;7.764;2023-08-31T04:40:59;17.37;;;10.63;;
7432;SDS011;32233;49.500;7.764;2023-08-31T04:43:26;23.60;;;11.13;;
7432;SDS011;32233;49.500;7.764;2023-08-31T04:45:53;25.23;;;11.40;;
7432;SDS011;32233;49.500;7.764;2023-08-31T04:48:20;23.83;;;12.50;;
7432;SDS011;32233;49.500;7.764;2023-08-31T04:50:47;21.07;;;10.77;;
7432;SDS011;32233;49.500;7.764;2023-08-31T04:53:14;22.37;;;11.77;;
7432;SDS011;32233;49.500;7.764;2023-08-31T04:55:41;21.07;;;11.57;;
7432;SDS011;32233;49.500;7.764;2023-08-31T04:58:08;24.90;;;12.03;;
7432;SDS011;32233;49.500;7.764;2023-08-31T05:00:34;22.40;;;11.57;;
7432;SDS011;32233;49.500;7.764;2023-08-31T05:03:01;24.53;;;11.80;;
7432;SDS011;32233;49.500;7.764;2023-08-31T05:05:27;21.63;;;10.73;;
7432;SDS011;32233;49.500;7.764;2023-08-31T05:07:54;23.10;;;11.90;;
7432;SDS011;32233;49.500;7.764;2023-08-31T05:10:21;26.43;;;11.73;;
7432;SDS011;32233;49.500;7.764;2023-08-31T05:12:47;17.37;;;10.63;;
7432;SDS011;32233;49.500;7.764;2023-08-31T05:15:14;23.60;;;10.77;;
7432;SDS011;32233;49.500;7.764;2023-08-31T05:17:40;20.50;;;11.10;;
7432;SDS011;32233;49.500;7.764;2023-08-31T05:20:07;17.97;;;10.27;;
7432;SDS011;32233;49.500;7.764;2023-08-31T05:22:36;16.70;;;9.87;;
7432;SDS011;32233;49.500;7.764;2023-08-31T05:25:02;16.73;;;10.00;;
7432;SDS011;32233;49.500;7.764;2023-08-31T05:27:30;19.07;;;10.33;;
7432;SDS011;32233;49.500;7.764;2023-08-31T05:29:57;18.57;;;9.87;;
7432;SDS011;32233;49.500;7.764;2023-08-31T05:32:23;19.37;;;11.00;;
7432;SDS011;32233;49.500;7.764;2023-08-31T05:34:50;21.27;;;10.97;;
7432;SDS011;32233;49.500;7.764;2023-08-31T05:37:16;14.23;;;9.10;;
7432;SDS011;32233;49.500;7.764;2023-08-31T05:39:47;14.03;;;9.20;;
7432;SDS011;32233;49.500;7.764;2023-08-31T05:42:14;11.97;;;8.67;;
7432;SDS011;32233;49.500;7.764;2023-08-31T05:44:40;17.53;;;8.83;;
7432;SDS011;32233;49.500;7.764;2023-08-31T05:47:07;10.10;;;7.53;;
7432;SDS011;32233;49.500;7.764;2023-08-31T05:49:34;10.43;;;7.03;;
7432;SDS011;32233;49.500;7.764;2023-08-31T05:52:01;8.53;;;6.97;;
7432;SDS011;32233;49.500;7.764;2023-08-31T05:54:27;9.80;;;7.03;;
7432;SDS011;32233;49.500;7.764;2023-08-31T05:56:54;13.07;;;7.60;;
7432;SDS011;32233;49.500;7.764;2023-08-31T05:59:20;9.83;;;7.90;;
7432;SDS011;32233;49.500;7.764;2023-08-31T06:01:47;12.87;;;7.80;;
7432;SDS011;32233;49.500;7.764;2023-08-31T06:04:14;10.40;;;7.17;;
7432;SDS011;32233;49.500;7.764;2023-08-31T06:06:41;12.47;;;7.90;;
7432;SDS011;32233;49.500;7.764;2023-08-31T06:09:07;11.47;;;7.43;;
7432;SDS011;32233;49.500;7.764;2023-08-31T06:11:34;16.43;;;8.47;;
7432;SDS011;32233;49.500;7.764;2023-08-31T06:14:01;14.20;;;8.20;;
7432;SDS011;32233;49.500;7.764;2023-08-31T06:16:28;10.17;;;7.67;;
7432;SDS011;32233;49.500;7.764;2023-08-31T06:18:54;9.63;;;6.97;;
7432;SDS011;32233;49.500;7.764;2023-08-31T06:21:21;13.33;;;7.63;;
7432;SDS011;32233;49.500;7.764;2023-08-31T06:23:47;12.70;;;7.87;;
7432;SDS011;32233;49.500;7.764;2023-08-31T06:26:14;9.97;;;7.07;;
7432;SDS011;32233;49.500;7.764;2023-08-31T06:28:40;10.83;;;6.50;;
7432;SDS011;32233;49.500;7.764;2023-08-31T06:31:07;11.57;;;7.00;;
7432;SDS011;32233;49.500;7.764;2023-08-31T06:33:35;12.07;;;7.20;;
7432;SDS011;32233;49.500;7.764;2023-08-31T06:36:01;10.90;;;7.80;;
7432;SDS011;32233;49.500;7.764;2023-08-31T06:38:28;12.93;;;7.10;;
7432;SDS011;32233;49.500;7.764;2023-08-31T06:40:55;11.93;;;6.77;;
7432;SDS011;32233;49.500;7.764;2023-08-31T06:43:25;10.23;;;6.73;;
7432;SDS011;32233;49.500;7.764;2023-08-31T06:45:54;12.83;;;6.10;;
7432;SDS011;32233;49.500;7.764;2023-08-31T06:48:27;8.90;;;5.37;;
7432;SDS011;32233;49.500;7.764;2023-08-31T06:50:54;8.03;;;6.17;;
7432;SDS011;32233;49.500;7.764;2023-08-31T06:53:20;10.73;;;6.33;;
7432;SDS011;32233;49.500;7.764;2023-08-31T06:55:47;13.53;;;6.47;;
7432;SDS011;32233;49.500;7.764;2023-08-31T06:58:14;8.67;;;5.77;;
7432;SDS011;32233;49.500;7.764;2023-08-31T07:00:41;9.30;;;5.60;;
7432;SDS011;32233;49.500;7.764;2023-08-31T07:03:07;7.33;;;5.40;;
7432;SDS011;32233;49.500;7.764;2023-08-31T07:05:34;9.30;;;5.20;;
7432;SDS011;32233;49.500;7.764;2023-08-31T07:08:02;8.90;;;5.03;;
7432;SDS011;32233;49.500;7.764;2023-08-31T07:10:31;10.40;;;5.23;;
7432;SDS011;32233;49.500;7.764;2023-08-31T07:13:07;8.13;;;5.10;;
7432;SDS011;32233;49.500;7.764;2023-08-31T07:15:44;7.97;;;5.10;;
7432;SDS011;32233;49.500;7.764;2023-08-31T07:18:13;9.10;;;5.30;;
7432;SDS011;32233;49.500;7.764;2023-08-31T07:20:41;7.93;;;5.27;;
7432;SDS011;32233;49.500;7.764;2023-08-31T07:23:10;13.00;;;5.73;;
7432;SDS011;32233;49.500;7.764;2023-08-31T07:25:37;10.80;;;5.40;;
7432;SDS011;32233;49.500;7.764;2023-08-31T07:28:04;10.67;;;5.00;;
7432;SDS011;32233;49.500;7.764;2023-08-31T07:30:30;9.73;;;5.40;;
7432;SDS011;32233;49.500;7.764;2023-08-31T07:32:59;5.97;;;4.60;;
7432;SDS011;32233;49.500;7.764;2023-08-31T07:35:49;6.47;;;4.00;;
7432;SDS011;32233;49.500;7.764;2023-08-31T07:38:16;6.13;;;3.63;;
7432;SDS011;32233;49.500;7.764;2023-08-31T07:40:42;6.87;;;3.47;;
7432;SDS011;32233;49.500;7.764;2023-08-31T07:43:09;5.80;;;3.67;;
7432;SDS011;32233;49.500;7.764;2023-08-31T07:45:36;6.17;;;3.23;;
7432;SDS011;32233;49.500;7.764;2023-08-31T07:48:03;4.80;;;2.87;;
7432;SDS011;32233;49.500;7.764;2023-08-31T07:50:31;3.47;;;2.40;;
7432;SDS011;32233;49.500;7.764;2023-08-31T07:52:57;6.63;;;2.43;;
7432;SDS011;32233;49.500;7.764;2023-08-31T07:55:24;4.03;;;2.10;;
7432;SDS011;32233;49.500;7.764;2023-08-31T07:57:51;4.80;;;2.27;;
7432;SDS011;32233;49.500;7.764;2023-08-31T08:00:17;5.23;;;2.13;;
7432;SDS011;32233;49.500;7.764;2023-08-31T08:02:45;7.10;;;2.53;;
7432;SDS011;32233;49.500;7.764;2023-08-31T08:05:12;6.37;;;2.27;;
7432;SDS011;32233;49.500;7.764;2023-08-31T08:07:39;5.27;;;2.40;;
7432;SDS011;32233;49.500;7.764;2023-08-31T08:10:09;4.70;;;2.17;;
7432;SDS011;32233;49.500;7.764;2023-08-31T08:12:39;5.17;;;1.97;;
7432;SDS011;32233;49.500;7.764;2023-08-31T08:15:07;5.37;;;2.50;;
7432;SDS011;32233;49.500;7.764;2023-08-31T08:17:34;4.87;;;2.23;;
7432;SDS011;32233;49.500;7.764;2023-08-31T08:20:01;4.10;;;2.17;;
7432;SDS011;32233;49.500;7.764;2023-08-31T08:22:29;5.47;;;2.30;;
7432;SDS011;32233;49.500;7.764;2023-08-31T08:24:56;3.27;;;1.90;;
7432;SDS011;32233;49.500;7.764;2023-08-31T08:27:22;4.93;;;2.00;;
7432;SDS011;32233;49.500;7.764;2023-08-31T08:29:49;5.63;;;2.10;;
7432;SDS011;32233;49.500;7.764;2023-08-31T08:32:16;4.93;;;1.87;;
7432;SDS011;32233;49.500;7.764;2023-08-31T08:34:42;8.47;;;2.20;;
7432;SDS011;32233;49.500;7.764;2023-08-31T08:37:09;4.47;;;1.63;;
7432;SDS011;32233;49.500;7.764;2023-08-31T08:39:35;4.53;;;1.77;;
7432;SDS011;32233;49.500;7.764;2023-08-31T08:42:04;5.47;;;1.67;;
7432;SDS011;32233;49.500;7.764;2023-08-31T08:44:32;1.97;;;1.37;;
7432;SDS011;32233;49.500;7.764;2023-08-31T08:47:00;3.60;;;1.50;;
7432;SDS011;32233;49.500;7.764;2023-08-31T08:49:26;3.10;;;1.40;;
7432;SDS011;32233;49.500;7.764;2023-08-31T08:51:56;4.03;;;1.30;;
7432;SDS011;32233;49.500;7.764;2023-08-31T08:54:22;3.27;;;1.53;;
7432;SDS011;32233;49.500;7.764;2023-08-31T08:56:50;2.73;;;1.27;;
7432;SDS011;32233;49.500;7.764;2023-08-31T08:59:17;2.83;;;1.40;;
7432;SDS011;32233;49.500;7.764;2023-08-31T09:01:45;3.03;;;1.40;;
7432;SDS011;32233;49.500;7.764;2023-08-31T09:04:12;2.80;;;1.40;;
7432;SDS011;32233;49.500;7.764;2023-08-31T09:06:39;4.63;;;1.40;;
7432;SDS011;32233;49.500;7.764;2023-08-31T09:09:09;3.03;;;1.20;;
7432;SDS011;32233;49.500;7.764;2023-08-31T09:11:36;2.13;;;1.30;;
7432;SDS011;32233;49.500;7.764;2023-08-31T09:14:15;3.30;;;1.40;;
7432;SDS011;32233;49.500;7.764;2023-08-31T09:16:46;3.07;;;1.20;;
7432;SDS011;32233;49.500;7.764;2023-08-31T09:19:33;4.33;;;1.40;;
7432;SDS011;32233;49.500;7.764;2023-08-31T09:21:59;4.00;;;1.30;;
7432;SDS011;32233;49.500;7.764;2023-08-31T09:24:26;2.60;;;1.10;;
7432;SDS011;32233;49.500;7.764;2023-08-31T09:26:53;2.37;;;1.20;;
7432;SDS011;32233;49.500;7.764;2023-08-31T09:29:21;3.00;;;1.27;;
7432;SDS011;32233;49.500;7.764;2023-08-31T09:31:48;3.63;;;1.30;;
7432;SDS011;32233;49.500;7.764;2023-08-31T09:34:15;2.57;;;1.07;;
7432;SDS011;32233;49.500;7.764;2023-08-31T09:36:43;2.60;;;1.13;;
7432;SDS011;32233;49.500;7.764;2023-08-31T09:39:10;2.70;;;1.13;;
7432;SDS011;32233;49.500;7.764;2023-08-31T09:41:52;3.73;;;1.10;;
7432;SDS011;32233;49.500;7.764;2023-08-31T09:44:20;2.63;;;1.30;;
7432;SDS011;32233;49.500;7.764;2023-08-31T09:46:47;4.87;;;1.47;;
7432;SDS011;32233;49.500;7.764;2023-08-31T09:49:15;3.00;;;1.30;;
7432;SDS011;32233;49.500;7.764;2023-08-31T09:51:46;2.60;;;1.20;;
7432;SDS011;32233;49.500;7.764;2023-08-31T09:54:20;4.60;;;1.80;;
7432;SDS011;32233;49.500;7.764;2023-08-31T09:56:52;3.50;;;1.30;;
7432;SDS011;32233;49.500;7.764;2023-08-31T09:59:22;3.50;;;1.40;;
7432;SDS011;32233;49.500;7.764;2023-08-31T10:01:52;4.37;;;1.13;;
7432;SDS011;32233;49.500;7.764;2023-08-31T10:04:19;3.40;;;1.20;;
7432;SDS011;32233;49.500;7.764;2023-08-31T10:06:45;3.40;;;1.60;;
7432;SDS011;32233;49.500;7.764;2023-08-31T10:09:12;3.53;;;1.60;;
7432;SDS011;32233;49.500;7.764;2023-08-31T10:11:40;2.93;;;1.47;;
7432;SDS011;32233;49.500;7.764;2023-08-31T10:14:11;5.30;;;1.70;;
7432;SDS011;32233;49.500;7.764;2023-08-31T10:16:40;4.53;;;1.60;;
7432;SDS011;32233;49.500;7.764;2023-08-31T10:19:10;2.03;;;1.17;;
7432;SDS011;32233;49.500;7.764;2023-08-31T10:21:36;2.43;;;1.10;;
7432;SDS011;32233;49.500;7.764;2023-08-31T10:24:05;6.40;;;1.53;;
7432;SDS011;32233;49.500;7.764;2023-08-31T10:26:33;5.27;;;1.53;;
7432;SDS011;32233;49.500;7.764;2023-08-31T10:28:59;6.80;;;1.47;;
7432;SDS011;32233;49.500;7.764;2023-08-31T10:31:31;3.53;;;1.37;;
7432;SDS011;32233;49.500;7.764;2023-08-31T10:34:00;4.67;;;1.43;;
7432;SDS011;32233;49.500;7.764;2023-08-31T10:36:41;5.00;;;1.53;;
7432;SDS011;32233;49.500;7.764;2023-08-31T10:41:39;3.00;;;1.30;;
7432;SDS011;32233;49.500;7.764;2023-08-31T10:44:19;3.40;;;1.60;;
7432;SDS011;32233;49.500;7.764;2023-08-31T10:46:50;3.33;;;1.30;;
7432;SDS011;32233;49.500;7.764;2023-08-31T10:49:19;5.73;;;1.60;;
7432;SDS011;32233;49.500;7.764;2023-08-31T10:51:48;3.57;;;1.33;;
7432;SDS011;32233;49.500;7.764;2023-08-31T10:54:26;3.57;;;1.50;;
7432;SDS011;32233;49.500;7.764;2023-08-31T10:59:48;4.00;;;1.63;;
7432;SDS011;32233;49.500;7.764;2023-08-31T11:05:07;4.43;;;1.63;;
7432;SDS011;32233;49.500;7.764;2023-08-31T11:07:39;4.33;;;1.50;;
7432;SDS011;32233;49.500;7.764;2023-08-31T11:10:08;5.17;;;1.63;;
7432;SDS011;32233;49.500;7.764;2023-08-31T11:12:36;2.87;;;1.60;;
7432;SDS011;32233;49.500;7.764;2023-08-31T11:15:03;5.87;;;1.60;;
7432;SDS011;32233;49.500;7.764;2023-08-31T11:17:30;5.37;;;1.53;;
7432;SDS011;32233;49.500;7.764;2023-08-31T11:20:00;4.23;;;1.77;;
7432;SDS011;32233;49.500;7.764;2023-08-31T11:22:27;3.83;;;1.47;;
7432;SDS011;32233;49.500;7.764;2023-08-31T11:24:54;6.67;;;2.00;;
7432;SDS011;32233;49.500;7.764;2023-08-31T11:27:22;5.90;;;1.50;;
7432;SDS011;32233;49.500;7.764;2023-08-31T11:29:49;7.07;;;1.60;;
7432;SDS011;32233;49.500;7.764;2023-08-31T11:32:16;5.93;;;1.47;;
7432;SDS011;32233;49.500;7.764;2023-08-31T11:34:45;6.30;;;1.83;;
7432;SDS011;32233;49.500;7.764;2023-08-31T11:37:12;4.20;;;1.73;;
7432;SDS011;32233;49.500;7.764;2023-08-31T11:39:52;7.50;;;2.13;;
7432;SDS011;32233;49.500;7.764;2023-08-31T11:42:20;6.73;;;2.40;;
7432;SDS011;32233;49.500;7.764;2023-08-31T11:44:48;5.50;;;1.93;;
7432;SDS011;32233;49.500;7.764;2023-08-31T11:47:17;7.40;;;1.70;;
7432;SDS011;32233;49.500;7.764;2023-08-31T11:49:45;3.87;;;1.90;;
7432;SDS011;32233;49.500;7.764;2023-08-31T11:52:12;6.03;;;2.80;;
7432;SDS011;32233;49.500;7.764;2023-08-31T11:54:41;4.57;;;2.00;;
7432;SDS011;32233;49.500;7.764;2023-08-31T11:57:09;5.57;;;2.13;;
7432;SDS011;32233;49.500;7.764;2023-08-31T11:59:37;5.97;;;3.03;;
7432;SDS011;32233;49.500;7.764;2023-08-31T12:02:05;6.30;;;2.97;;
7432;SDS011;32233;49.500;7.764;2023-08-31T12:04:42;4.07;;;2.73;;
7432;SDS011;32233;49.500;7.764;2023-08-31T12:07:18;4.97;;;2.00;;
7432;SDS011;32233;49.500;7.764;2023-08-31T12:09:45;3.40;;;1.70;;
7432;SDS011;32233;49.500;7.764;2023-08-31T12:12:17;6.90;;;2.03;;
7432;SDS011;32233;49.500;7.764;2023-08-31T12:14:52;4.00;;;1.73;;
7432;SDS011;32233;49.500;7.764;2023-08-31T12:17:19;4.40;;;2.00;;
7432;SDS011;32233;49.500;7.764;2023-08-31T12:19:45;5.90;;;2.07;;
7432;SDS011;32233;49.500;7.764;2023-08-31T12:22:12;6.70;;;2.10;;
7432;SDS011;32233;49.500;7.764;2023-08-31T12:24:41;5.70;;;2.03;;
7432;SDS011;32233;49.500;7.764;2023-08-31T12:27:08;4.23;;;1.80;;
7432;SDS011;32233;49.500;7.764;2023-08-31T12:29:35;5.00;;;1.77;;
7432;SDS011;32233;49.500;7.764;2023-08-31T12:32:02;3.33;;;2.07;;
7432;SDS011;32233;49.500;7.764;2023-08-31T12:34:29;3.87;;;2.10;;
7432;SDS011;32233;49.500;7.764;2023-08-31T12:36:59;4.07;;;1.70;;
7432;SDS011;32233;49.500;7.764;2023-08-31T12:39:27;6.20;;;2.50;;
7432;SDS011;32233;49.500;7.764;2023-08-31T12:41:53;3.53;;;1.57;;
7432;SDS011;32233;49.500;7.764;2023-08-31T12:44:31;3.73;;;1.93;;
7432;SDS011;32233;49.500;7.764;2023-08-31T12:46:57;3.67;;;2.23;;
7432;SDS011;32233;49.500;7.764;2023-08-31T12:49:24;4.23;;;1.70;;
7432;SDS011;32233;49.500;7.764;2023-08-31T12:51:50;12.90;;;4.47;;
7432;SDS011;32233;49.500;7.764;2023-08-31T12:54:17;11.03;;;3.50;;
7432;SDS011;32233;49.500;7.764;2023-08-31T12:56:44;6.13;;;3.93;;
7432;SDS011;32233;49.500;7.764;2023-08-31T12:59:11;9.53;;;4.57;;
7432;SDS011;32233;49.500;7.764;2023-08-31T13:01:37;5.20;;;2.77;;
7432;SDS011;32233;49.500;7.764;2023-08-31T13:04:04;12.67;;;4.53;;
7432;SDS011;32233;49.500;7.764;2023-08-31T13:06:31;9.53;;;4.20;;
7432;SDS011;32233;49.500;7.764;2023-08-31T13:08:58;6.20;;;2.40;;
7432;SDS011;32233;49.500;7.764;2023-08-31T13:11:24;6.27;;;1.70;;
7432;SDS011;32233;49.500;7.764;2023-08-31T13:13:51;3.87;;;1.83;;
7432;SDS011;32233;49.500;7.764;2023-08-31T13:16:18;2.40;;;1.87;;
7432;SDS011;32233;49.500;7.764;2023-08-31T13:18:45;6.33;;;1.87;;
7432;SDS011;32233;49.500;7.764;2023-08-31T13:21:12;4.50;;;2.17;;
7432;SDS011;32233;49.500;7.764;2023-08-31T13:23:38;5.83;;;1.57;;
7432;SDS011;32233;49.500;7.764;2023-08-31T13:26:05;3.33;;;1.80;;
7432;SDS011;32233;49.500;7.764;2023-08-31T13:28:31;4.37;;;2.10;;
7432;SDS011;32233;49.500;7.764;2023-08-31T13:30:58;4.40;;;1.93;;
7432;SDS011;32233;49.500;7.764;2023-08-31T13:33:27;6.47;;;1.80;;
7432;SDS011;32233;49.500;7.764;2023-08-31T13:35:57;3.43;;;1.63;;
7432;SDS011;32233;49.500;7.764;2023-08-31T13:38:27;5.07;;;1.90;;
7432;SDS011;32233;49.500;7.764;2023-08-31T13:40:54;2.80;;;1.70;;
7432;SDS011;32233;49.500;7.764;2023-08-31T13:43:22;4.17;;;1.57;;
7432;SDS011;32233;49.500;7.764;2023-08-31T13:45:49;3.17;;;2.00;;
7432;SDS011;32233;49.500;7.764;2023-08-31T13:48:16;3.87;;;1.70;;
7432;SDS011;32233;49.500;7.764;2023-08-31T13:50:43;4.67;;;2.10;;
7432;SDS011;32233;49.500;7.764;2023-08-31T13:53:09;4.53;;;2.20;;
7432;SDS011;32233;49.500;7.764;2023-08-31T13:55:36;4.60;;;2.10;;
7432;SDS011;32233;49.500;7.764;2023-08-31T13:58:03;4.50;;;2.07;;
7432;SDS011;32233;49.500;7.764;2023-08-31T14:00:32;4.60;;;2.07;;
7432;SDS011;32233;49.500;7.764;2023-08-31T14:02:59;6.07;;;2.20;;
7432;SDS011;32233;49.500;7.764;2023-08-31T14:05:29;7.03;;;2.30;;
7432;SDS011;32233;49.500;7.764;2023-08-31T14:08:01;5.03;;;1.70;;
7432;SDS011;32233;49.500;7.764;2023-08-31T14:10:33;6.67;;;2.20;;
7432;SDS011;32233;49.500;7.764;2023-08-31T14:12:59;3.03;;;1.90;;
7432;SDS011;32233;49.500;7.764;2023-08-31T14:15:26;6.60;;;2.07;;
7432;SDS011;32233;49.500;7.764;2023-08-31T14:17:53;7.27;;;2.10;;
7432;SDS011;32233;49.500;7.764;2023-08-31T14:20:20;9.63;;;1.70;;
7432;SDS011;32233;49.500;7.764;2023-08-31T14:22:47;6.87;;;1.90;;
7432;SDS011;32233;49.500;7.764;2023-08-31T14:25:13;3.07;;;2.20;;
7432;SDS011;32233;49.500;7.764;2023-08-31T14:27:41;5.57;;;1.83;;
7432;SDS011;32233;49.500;7.764;2023-08-31T14:30:08;6.87;;;2.10;;
7432;SDS011;32233;49.500;7.764;2023-08-31T14:32:35;3.73;;;2.00;;
7432;SDS011;32233;49.500;7.764;2023-08-31T14:35:02;3.50;;;1.50;;
7432;SDS011;32233;49.500;7.764;2023-08-31T14:37:30;5.70;;;2.00;;
7432;SDS011;32233;49.500;7.764;2023-08-31T14:39:57;4.00;;;1.80;;
7432;SDS011;32233;49.500;7.764;2023-08-31T14:42:23;4.53;;;2.13;;
7432;SDS011;32233;49.500;7.764;2023-08-31T14:44:50;4.83;;;1.63;;
7432;SDS011;32233;49.500;7.764;2023-08-31T14:47:16;4.50;;;1.87;;
7432;SDS011;32233;49.500;7.764;2023-08-31T14:49:50;16.90;;;7.30;;
7432;SDS011;32233;49.500;7.764;2023-08-31T14:52:17;9.10;;;4.13;;
7432;SDS011;32233;49.500;7.764;2023-08-31T14:54:43;7.67;;;3.60;;
7432;SDS011;32233;49.500;7.764;2023-08-31T14:57:11;4.37;;;2.47;;
7432;SDS011;32233;49.500;7.764;2023-08-31T14:59:38;8.27;;;3.23;;
7432;SDS011;32233;49.500;7.764;2023-08-31T15:02:04;6.00;;;1.97;;
7432;SDS011;32233;49.500;7.764;2023-08-31T15:04:32;5.80;;;1.87;;
7432;SDS011;32233;49.500;7.764;2023-08-31T15:06:58;8.03;;;2.37;;
7432;SDS011;32233;49.500;7.764;2023-08-31T15:09:26;4.87;;;2.10;;
7432;SDS011;32233;49.500;7.764;2023-08-31T15:11:55;6.53;;;1.90;;